sensor_id;sensor_type;location;lat;lon;timestamp;pressure;altitude;pressure_sealevel;temperature;humidity
17260;BME280;8746;49.230;9.220;2022-11-25T00:00:49;99945.22;;;1.15;100.00
17260;BME280;8746;49.230;9.220;2022-11-25T00:03:15;99936.59;;;1.09;100.00
17260;BME280;8746;49.230;9.220;2022-11-25T00:05:40;99937.47;;;1.01;100.00
17260;BME280;8746;49.230;9.220;2022-11-25T00:08:06;99940.91;;;1.01;100.00
17260;BME280;8746;49.230;9.220;2022-11-25T00:10:31;99946.09;;;1.07;100.00
17260;BME280;8746;49.230;9.220;2022-11-25T00:12:56;99933.97;;;1.12;100.00
17260;BME280;8746;49.230;9.220;2022-11-25T00:15:22;99933.09;;;1.23;100.00
17260;BME280;8746;49.230;9.220;2022-11-25T00:17:47;99935.69;;;1.29;100.00
17260;BME280;8746;49.230;9.220;2022-11-25T00:20:13;99936.56;;;1.19;100.00
17260;BME280;8746;49.230;9.220;2022-11-25T00:22:38;99940.06;;;0.93;100.00
17260;BME280;8746;49.230;9.220;2022-11-25T00:25:04;99935.75;;;0.98;100.00
17260;BME280;8746;49.230;9.220;2022-11-25T00:27:29;99934.88;;;0.96;100.00
17260;BME280;8746;49.230;9.220;2022-11-25T00:29:55;99933.16;;;0.92;100.00
17260;BME280;8746;49.230;9.220;2022-11-25T00:32:20;99936.59;;;0.82;100.00
17260;BME280;8746;49.230;9.220;2022-11-25T00:34:46;99941.78;;;0.83;100.00
17260;BME280;8746;49.230;9.220;2022-11-25T00:37:11;99944.41;;;0.86;100.00
17260;BME280;8746;49.230;9.220;2022-11-25T00:39:37;99947.88;;;0.84;100.00
17260;BME280;8746;49.230;9.220;2022-11-25T00:42:02;99939.19;;;0.86;100.00
17260;BME280;8746;49.230;9.220;2022-11-25T00:47:21;99951.31;;;0.73;100.00
17260;BME280;8746;49.230;9.220;2022-11-25T00:49:52;99953.91;;;0.79;100.00
17260;BME280;8746;49.230;9.220;2022-11-25T00:52:20;99948.72;;;0.90;100.00
17260;BME280;8746;49.230;9.220;2022-11-25T00:54:46;99948.75;;;0.92;100.00
17260;BME280;8746;49.230;9.220;2022-11-25T00:57:13;99948.75;;;0.92;100.00
17260;BME280;8746;49.230;9.220;2022-11-25T00:59:39;99940.06;;;0.84;100.00
17260;BME280;8746;49.230;9.220;2022-11-25T01:02:05;99944.41;;;0.78;100.00
17260;BME280;8746;49.230;9.220;2022-11-25T01:04:30;99949.59;;;0.75;100.00
17260;BME280;8746;49.230;9.220;2022-11-25T01:06:56;99951.34;;;0.69;100.00
17260;BME280;8746;49.230;9.220;2022-11-25T01:09:23;99949.59;;;0.71;100.00
17260;BME280;8746;49.230;9.220;2022-11-25T01:11:49;99946.13;;;0.66;100.00
17260;BME280;8746;49.230;9.220;2022-11-25T01:14:15;99945.25;;;0.68;100.00
17260;BME280;8746;49.230;9.220;2022-11-25T01:16:41;99948.72;;;0.72;100.00
17260;BME280;8746;49.230;9.220;2022-11-25T01:19:06;99955.66;;;0.74;100.00
17260;BME280;8746;49.230;9.220;2022-11-25T01:21:33;99950.44;;;0.74;100.00
17260;BME280;8746;49.230;9.220;2022-11-25T01:24:00;99949.59;;;0.77;100.00
17260;BME280;8746;49.230;9.220;2022-11-25T01:26:27;99951.34;;;0.81;100.00
17260;BME280;8746;49.230;9.220;2022-11-25T01:28:58;99953.03;;;0.91;100.00
17260;BME280;8746;49.230;9.220;2022-11-25T01:31:27;99958.25;;;0.91;100.00
17260;BME280;8746;49.230;9.220;2022-11-25T01:33:55;99972.13;;;0.92;100.00
17260;BME280;8746;49.230;9.220;2022-11-25T01:36:22;99963.44;;;0.98;100.00
17260;BME280;8746;49.230;9.220;2022-11-25T01:38:52;99961.72;;;0.93;100.00
17260;BME280;8746;49.230;9.220;2022-11-25T01:41:19;99961.69;;;0.90;100.00
17260;BME280;8746;49.230;9.220;2022-11-25T01:44:11;99964.31;;;0.84;100.00
17260;BME280;8746;49.230;9.220;2022-11-25T01:46:57;99960.84;;;0.77;100.00
17260;BME280;8746;49.230;9.220;2022-11-25T01:49:43;99955.66;;;0.71;100.00
17260;BME280;8746;49.230;9.220;2022-11-25T01:54:57;99950.44;;;0.74;100.00
17260;BME280;8746;49.230;9.220;2022-11-25T01:57:33;99959.13;;;0.86;100.00
17260;BME280;8746;49.230;9.220;2022-11-25T02:00:03;99965.19;;;0.86;100.00
17260;BME280;8746;49.230;9.220;2022-11-25T02:02:29;99961.69;;;0.79;100.00
17260;BME280;8746;49.230;9.220;2022-11-25T02:04:55;99972.09;;;0.89;100.00
17260;BME280;8746;49.230;9.220;2022-11-25T02:07:35;99964.31;;;0.95;100.00
17260;BME280;8746;49.230;9.220;2022-11-25T02:10:03;99959.13;;;0.93;100.00
17260;BME280;8746;49.230;9.220;2022-11-25T02:12:29;99962.59;;;0.85;100.00
17260;BME280;8746;49.230;9.220;2022-11-25T02:14:57;99966.91;;;0.87;100.00
17260;BME280;8746;49.230;9.220;2022-11-25T02:17:23;99969.50;;;0.96;100.00
17260;BME280;8746;49.230;9.220;2022-11-25T02:20:00;99971.22;;;0.93;100.00
17260;BME280;8746;49.230;9.220;2022-11-25T02:27:42;99978.19;;;0.95;100.00
17260;BME280;8746;49.230;9.220;2022-11-25T02:30:09;99970.38;;;0.91;100.00
17260;BME280;8746;49.230;9.220;2022-11-25T02:32:34;99964.31;;;0.83;100.00
17260;BME280;8746;49.230;9.220;2022-11-25T02:34:59;99976.44;;;0.88;100.00
17260;BME280;8746;49.230;9.220;2022-11-25T02:37:25;99970.38;;;1.02;100.00
17260;BME280;8746;49.230;9.220;2022-11-25T02:39:52;99966.03;;;0.91;100.00
17260;BME280;8746;49.230;9.220;2022-11-25T02:42:18;99972.97;;;0.82;100.00
17260;BME280;8746;49.230;9.220;2022-11-25T02:44:47;99966.91;;;0.84;100.00
17260;BME280;8746;49.230;9.220;2022-11-25T02:47:12;99973.81;;;0.87;100.00
17260;BME280;8746;49.230;9.220;2022-11-25T02:49:38;99966.03;;;0.68;100.00
17260;BME280;8746;49.230;9.220;2022-11-25T02:52:03;99963.44;;;0.54;100.00
17260;BME280;8746;49.230;9.220;2022-11-25T02:54:29;99964.28;;;0.67;100.00
17260;BME280;8746;49.230;9.220;2022-11-25T02:56:54;99967.75;;;0.77;100.00
17260;BME280;8746;49.230;9.220;2022-11-25T02:59:19;99964.28;;;0.73;100.00
17260;BME280;8746;49.230;9.220;2022-11-25T03:01:45;99966.03;;;0.85;100.00
17260;BME280;8746;49.230;9.220;2022-11-25T03:04:11;99966.94;;;0.86;100.00
17260;BME280;8746;49.230;9.220;2022-11-25T03:06:36;99961.72;;;0.81;100.00
17260;BME280;8746;49.230;9.220;2022-11-25T03:09:02;99957.38;;;0.75;100.00
17260;BME280;8746;49.230;9.220;2022-11-25T03:11:27;99963.44;;;0.74;100.00
17260;BME280;8746;49.230;9.220;2022-11-25T03:14:11;99954.81;;;0.66;100.00
17260;BME280;8746;49.230;9.220;2022-11-25T03:16:37;99952.19;;;0.71;100.00
17260;BME280;8746;49.230;9.220;2022-11-25T03:19:02;99952.19;;;0.69;100.00
17260;BME280;8746;49.230;9.220;2022-11-25T03:21:28;99943.53;;;0.67;100.00
17260;BME280;8746;49.230;9.220;2022-11-25T03:23:53;99937.47;;;0.74;100.00
17260;BME280;8746;49.230;9.220;2022-11-25T03:26:18;99935.75;;;0.78;100.00
17260;BME280;8746;49.230;9.220;2022-11-25T03:28:44;99935.75;;;0.89;100.00
17260;BME280;8746;49.230;9.220;2022-11-25T03:31:10;99929.66;;;1.05;100.00
17260;BME280;8746;49.230;9.220;2022-11-25T03:33:36;99921.88;;;1.07;100.00
17260;BME280;8746;49.230;9.220;2022-11-25T03:36:01;99927.91;;;1.07;100.00
17260;BME280;8746;49.230;9.220;2022-11-25T03:38:26;99922.75;;;1.04;100.00
17260;BME280;8746;49.230;9.220;2022-11-25T03:40:52;99920.13;;;1.10;100.00
17260;BME280;8746;49.230;9.220;2022-11-25T03:43:17;99926.16;;;1.12;100.00
17260;BME280;8746;49.230;9.220;2022-11-25T03:45:42;99926.19;;;1.03;100.00
17260;BME280;8746;49.230;9.220;2022-11-25T03:48:08;99933.16;;;0.98;100.00
17260;BME280;8746;49.230;9.220;2022-11-25T03:50:33;99927.09;;;0.99;100.00
17260;BME280;8746;49.230;9.220;2022-11-25T03:52:58;99922.75;;;0.95;100.00
17260;BME280;8746;49.230;9.220;2022-11-25T03:55:24;99930.56;;;0.86;100.00
17260;BME280;8746;49.230;9.220;2022-11-25T03:57:49;99932.28;;;0.91;100.00
17260;BME280;8746;49.230;9.220;2022-11-25T04:00:15;99927.94;;;0.93;100.00
17260;BME280;8746;49.230;9.220;2022-11-25T04:02:40;99924.47;;;0.96;100.00
17260;BME280;8746;49.230;9.220;2022-11-25T04:05:06;99922.75;;;1.04;100.00
17260;BME280;8746;49.230;9.220;2022-11-25T04:07:31;99921.00;;;0.94;100.00
17260;BME280;8746;49.230;9.220;2022-11-25T04:09:57;99917.53;;;0.95;100.00
17260;BME280;8746;49.230;9.220;2022-11-25T04:12:22;99922.72;;;1.01;100.00
17260;BME280;8746;49.230;9.220;2022-11-25T04:15:06;99918.41;;;0.97;100.00
17260;BME280;8746;49.230;9.220;2022-11-25T04:17:31;99924.47;;;1.02;100.00
17260;BME280;8746;49.230;9.220;2022-11-25T04:19:57;99918.44;;;0.95;100.00
17260;BME280;8746;49.230;9.220;2022-11-25T04:22:22;99920.13;;;1.01;100.00
17260;BME280;8746;49.230;9.220;2022-11-25T04:24:48;99920.13;;;1.06;100.00
17260;BME280;8746;49.230;9.220;2022-11-25T04:27:13;99926.16;;;1.12;100.00
17260;BME280;8746;49.230;9.220;2022-11-25T04:29:38;99922.72;;;1.17;100.00
17260;BME280;8746;49.230;9.220;2022-11-25T04:32:04;99919.25;;;1.13;100.00
17260;BME280;8746;49.230;9.220;2022-11-25T04:34:29;99923.56;;;1.20;100.00
17260;BME280;8746;49.230;9.220;2022-11-25T04:36:55;99922.75;;;1.09;100.00
17260;BME280;8746;49.230;9.220;2022-11-25T04:39:20;99922.72;;;1.17;100.00
17260;BME280;8746;49.230;9.220;2022-11-25T04:41:45;99926.16;;;1.12;100.00
17260;BME280;8746;49.230;9.220;2022-11-25T04:44:11;99920.97;;;1.20;100.00
17260;BME280;8746;49.230;9.220;2022-11-25T04:46:39;99914.06;;;1.13;100.00
17260;BME280;8746;49.230;9.220;2022-11-25T04:49:05;99914.91;;;1.12;100.00
17260;BME280;8746;49.230;9.220;2022-11-25T04:51:30;99908.84;;;1.15;100.00
17260;BME280;8746;49.230;9.220;2022-11-25T04:53:56;99910.59;;;1.16;100.00
17260;BME280;8746;49.230;9.220;2022-11-25T04:56:22;99908.84;;;1.18;100.00
17260;BME280;8746;49.230;9.220;2022-11-25T04:58:47;99910.59;;;1.19;100.00
17260;BME280;8746;49.230;9.220;2022-11-25T05:01:31;99914.06;;;1.18;100.00
17260;BME280;8746;49.230;9.220;2022-11-25T05:03:56;99922.72;;;1.10;100.00
17260;BME280;8746;49.230;9.220;2022-11-25T05:06:22;99927.03;;;1.13;100.00
17260;BME280;8746;49.230;9.220;2022-11-25T05:08:48;99929.63;;;1.15;100.00
17260;BME280;8746;49.230;9.220;2022-11-25T05:11:14;99927.03;;;1.15;100.00
17260;BME280;8746;49.230;9.220;2022-11-25T05:13:39;99924.44;;;1.18;100.00
17260;BME280;8746;49.230;9.220;2022-11-25T05:16:05;99919.25;;;1.18;100.00
17260;BME280;8746;49.230;9.220;2022-11-25T05:18:30;99923.59;;;1.19;100.00
17260;BME280;8746;49.230;9.220;2022-11-25T05:21:01;99928.75;;;1.25;100.00
17260;BME280;8746;49.230;9.220;2022-11-25T05:23:26;99919.22;;;1.24;100.00
17260;BME280;8746;49.230;9.220;2022-11-25T05:26:00;99933.09;;;1.21;100.00
17260;BME280;8746;49.230;9.220;2022-11-25T05:28:27;99930.47;;;1.26;100.00
17260;BME280;8746;49.230;9.220;2022-11-25T05:30:53;99928.75;;;1.31;100.00
17260;BME280;8746;49.230;9.220;2022-11-25T05:33:18;99940.00;;;1.30;100.00
17260;BME280;8746;49.230;9.220;2022-11-25T05:35:43;99933.94;;;1.22;100.00
17260;BME280;8746;49.230;9.220;2022-11-25T05:38:09;99925.28;;;1.23;100.00
17260;BME280;8746;49.230;9.220;2022-11-25T05:40:34;99931.34;;;1.22;100.00
17260;BME280;8746;49.230;9.220;2022-11-25T05:43:00;99927.03;;;1.18;100.00
17260;BME280;8746;49.230;9.220;2022-11-25T05:45:26;99930.50;;;1.27;100.00
17260;BME280;8746;49.230;9.220;2022-11-25T05:47:51;99939.13;;;1.33;100.00
17260;BME280;8746;49.230;9.220;2022-11-25T05:50:16;99932.19;;;1.33;100.00
17260;BME280;8746;49.230;9.220;2022-11-25T05:52:42;99933.94;;;1.33;100.00
17260;BME280;8746;49.230;9.220;2022-11-25T05:55:07;99943.47;;;1.24;100.00
17260;BME280;8746;49.230;9.220;2022-11-25T05:57:33;99941.75;;;1.25;100.00
17260;BME280;8746;49.230;9.220;2022-11-25T05:59:58;99945.19;;;1.27;100.00
17260;BME280;8746;49.230;9.220;2022-11-25T06:02:23;99953.00;;;1.30;100.00
17260;BME280;8746;49.230;9.220;2022-11-25T06:04:49;99956.47;;;1.27;100.00
17260;BME280;8746;49.230;9.220;2022-11-25T06:07:14;99960.81;;;1.15;100.00
17260;BME280;8746;49.230;9.220;2022-11-25T06:09:39;99959.09;;;1.15;100.00
17260;BME280;8746;49.230;9.220;2022-11-25T06:12:05;99963.41;;;1.10;100.00
17260;BME280;8746;49.230;9.220;2022-11-25T06:14:30;99966.88;;;1.14;100.00
17260;BME280;8746;49.230;9.220;2022-11-25T06:16:56;99966.88;;;1.14;100.00
17260;BME280;8746;49.230;9.220;2022-11-25T06:19:21;99969.44;;;1.26;100.00
17260;BME280;8746;49.230;9.220;2022-11-25T06:21:46;99972.06;;;1.24;100.00
17260;BME280;8746;49.230;9.220;2022-11-25T06:24:12;99972.09;;;1.15;100.00
17260;BME280;8746;49.230;9.220;2022-11-25T06:26:38;99972.09;;;1.10;100.00
17260;BME280;8746;49.230;9.220;2022-11-25T06:29:03;99966.03;;;1.08;100.00
17260;BME280;8746;49.230;9.220;2022-11-25T06:31:28;99972.94;;;1.00;100.00
17260;BME280;8746;49.230;9.220;2022-11-25T06:33:54;99983.34;;;1.00;100.00
17260;BME280;8746;49.230;9.220;2022-11-25T06:36:20;99983.34;;;0.97;100.00
17260;BME280;8746;49.230;9.220;2022-11-25T06:38:48;99975.56;;;0.95;100.00
17260;BME280;8746;49.230;9.220;2022-11-25T06:41:14;99979.88;;;0.96;100.00
17260;BME280;8746;49.230;9.220;2022-11-25T06:43:40;99983.38;;;0.95;100.00
17260;BME280;8746;49.230;9.220;2022-11-25T06:46:10;99985.06;;;0.90;100.00
17260;BME280;8746;49.230;9.220;2022-11-25T06:48:37;99983.34;;;0.75;100.00
17260;BME280;8746;49.230;9.220;2022-11-25T06:51:05;99986.81;;;0.77;100.00
17260;BME280;8746;49.230;9.220;2022-11-25T06:53:31;99980.75;;;0.74;100.00
17260;BME280;8746;49.230;9.220;2022-11-25T06:56:12;99983.34;;;0.77;100.00
17260;BME280;8746;49.230;9.220;2022-11-25T06:58:38;99992.88;;;0.72;100.00
17260;BME280;8746;49.230;9.220;2022-11-25T07:01:12;99998.94;;;0.78;100.00
17260;BME280;8746;49.230;9.220;2022-11-25T07:03:37;99992.00;;;0.90;100.00
17260;BME280;8746;49.230;9.220;2022-11-25T07:06:03;99982.47;;;0.78;100.00
17260;BME280;8746;49.230;9.220;2022-11-25T07:08:29;99982.47;;;0.66;100.00
17260;BME280;8746;49.230;9.220;2022-11-25T07:11:00;99990.28;;;0.66;100.00
17260;BME280;8746;49.230;9.220;2022-11-25T07:13:26;99996.34;;;0.74;100.00
17260;BME280;8746;49.230;9.220;2022-11-25T07:15:51;99997.22;;;0.90;100.00
17260;BME280;8746;49.230;9.220;2022-11-25T07:18:16;99979.91;;;0.92;100.00
17260;BME280;8746;49.230;9.220;2022-11-25T07:20:42;99989.44;;;0.88;100.00
17260;BME280;8746;49.230;9.220;2022-11-25T07:23:07;100004.13;;;1.00;100.00
17260;BME280;8746;49.230;9.220;2022-11-25T07:25:32;100008.47;;;0.95;100.00
17260;BME280;8746;49.230;9.220;2022-11-25T07:27:58;100018.84;;;1.24;100.00
17260;BME280;8746;49.230;9.220;2022-11-25T07:30:24;100018.84;;;1.23;100.00
17260;BME280;8746;49.230;9.220;2022-11-25T07:32:49;100017.97;;;1.25;100.00
17260;BME280;8746;49.230;9.220;2022-11-25T07:35:15;100024.00;;;1.43;100.00
17260;BME280;8746;49.230;9.220;2022-11-25T07:37:40;100029.19;;;1.55;100.00
17260;BME280;8746;49.230;9.220;2022-11-25T07:40:06;100033.50;;;1.76;100.00
17260;BME280;8746;49.230;9.220;2022-11-25T07:42:31;100032.56;;;1.91;100.00
17260;BME280;8746;49.230;9.220;2022-11-25T07:44:57;100038.63;;;1.98;100.00
17260;BME280;8746;49.230;9.220;2022-11-25T07:47:23;100047.22;;;2.16;100.00
17260;BME280;8746;49.230;9.220;2022-11-25T07:49:49;100055.91;;;2.15;100.00
17260;BME280;8746;49.230;9.220;2022-11-25T07:52:14;100049.84;;;2.16;100.00
17260;BME280;8746;49.230;9.220;2022-11-25T07:54:40;100054.19;;;2.11;100.00
17260;BME280;8746;49.230;9.220;2022-11-25T07:57:05;100051.56;;;2.15;100.00
17260;BME280;8746;49.230;9.220;2022-11-25T07:59:30;100061.88;;;2.38;100.00
17260;BME280;8746;49.230;9.220;2022-11-25T08:01:56;100060.19;;;2.25;100.00
17260;BME280;8746;49.230;9.220;2022-11-25T08:04:22;100060.19;;;2.30;100.00
17260;BME280;8746;49.230;9.220;2022-11-25T08:06:49;100051.50;;;2.31;100.00
17260;BME280;8746;49.230;9.220;2022-11-25T08:09:17;100056.72;;;2.26;100.00
17260;BME280;8746;49.230;9.220;2022-11-25T08:11:43;100055.75;;;2.49;100.00
17260;BME280;8746;49.230;9.220;2022-11-25T08:14:09;100067.09;;;2.40;100.00
17260;BME280;8746;49.230;9.220;2022-11-25T08:16:36;100055.78;;;2.43;100.00
17260;BME280;8746;49.230;9.220;2022-11-25T08:19:05;100057.53;;;2.40;100.00
17260;BME280;8746;49.230;9.220;2022-11-25T08:21:31;100049.69;;;2.47;100.00
17260;BME280;8746;49.230;9.220;2022-11-25T08:23:57;100056.66;;;2.43;100.00
17260;BME280;8746;49.230;9.220;2022-11-25T08:26:27;100051.50;;;2.35;100.00
17260;BME280;8746;49.230;9.220;2022-11-25T08:28:58;100056.66;;;2.43;100.00
17260;BME280;8746;49.230;9.220;2022-11-25T08:31:32;100061.88;;;2.40;100.00
17260;BME280;8746;49.230;9.220;2022-11-25T08:33:58;100064.44;;;2.45;100.00
17260;BME280;8746;49.230;9.220;2022-11-25T08:36:25;100063.59;;;2.47;100.00
17260;BME280;8746;49.230;9.220;2022-11-25T08:38:53;100062.66;;;2.54;100.00
17260;BME280;8746;49.230;9.220;2022-11-25T08:41:26;100061.84;;;2.51;100.00
17260;BME280;8746;49.230;9.220;2022-11-25T08:43:53;100063.63;;;2.41;100.00
17260;BME280;8746;49.230;9.220;2022-11-25T08:46:21;100056.63;;;2.51;100.00
17260;BME280;8746;49.230;9.220;2022-11-25T08:48:47;100054.06;;;2.38;100.00
17260;BME280;8746;49.230;9.220;2022-11-25T08:51:18;100061.78;;;2.59;100.00
17260;BME280;8746;49.230;9.220;2022-11-25T08:53:44;100071.28;;;2.66;100.00
17260;BME280;8746;49.230;9.220;2022-11-25T08:56:10;100064.28;;;2.76;100.00
17260;BME280;8746;49.230;9.220;2022-11-25T08:58:36;100057.34;;;2.71;100.00
17260;BME280;8746;49.230;9.220;2022-11-25T09:01:03;100059.94;;;2.71;100.00
17260;BME280;8746;49.230;9.220;2022-11-25T09:03:34;100054.75;;;2.70;100.00
17260;BME280;8746;49.230;9.220;2022-11-25T09:06:00;100058.16;;;2.81;100.00
17260;BME280;8746;49.230;9.220;2022-11-25T09:08:26;100065.88;;;3.00;100.00
17260;BME280;8746;49.230;9.220;2022-11-25T09:10:52;100066.50;;;3.28;100.00
17260;BME280;8746;49.230;9.220;2022-11-25T09:13:17;100062.03;;;3.43;100.00
17260;BME280;8746;49.230;9.220;2022-11-25T09:15:43;100068.19;;;3.34;100.00
17260;BME280;8746;49.230;9.220;2022-11-25T09:18:09;100068.16;;;3.40;100.00
17260;BME280;8746;49.230;9.220;2022-11-25T09:20:39;100060.16;;;3.57;100.00
17260;BME280;8746;49.230;9.220;2022-11-25T09:23:05;100068.56;;;3.87;100.00
17260;BME280;8746;49.230;9.220;2022-11-25T09:25:32;100082.75;;;3.61;100.00
17260;BME280;8746;49.230;9.220;2022-11-25T09:27:57;100084.59;;;3.50;100.00
17260;BME280;8746;49.230;9.220;2022-11-25T09:30:24;100081.00;;;3.57;100.00
17260;BME280;8746;49.230;9.220;2022-11-25T09:32:51;100077.63;;;3.50;100.00
17260;BME280;8746;49.230;9.220;2022-11-25T09:35:17;100080.94;;;3.69;100.00
17260;BME280;8746;49.230;9.220;2022-11-25T09:37:42;100077.41;;;3.74;100.00
17260;BME280;8746;49.230;9.220;2022-11-25T09:40:20;100076.47;;;3.79;100.00
17260;BME280;8746;49.230;9.220;2022-11-25T09:43:10;100077.41;;;3.74;100.00
17260;BME280;8746;49.230;9.220;2022-11-25T09:46:25;100087.69;;;3.89;100.00
17260;BME280;8746;49.230;9.220;2022-11-25T09:51:57;100092.78;;;3.98;100.00
17260;BME280;8746;49.230;9.220;2022-11-25T09:54:37;100102.13;;;4.21;100.00
17260;BME280;8746;49.230;9.220;2022-11-25T09:57:18;100110.44;;;4.53;100.00
17260;BME280;8746;49.230;9.220;2022-11-25T09:59:53;100111.31;;;4.53;100.00
17260;BME280;8746;49.230;9.220;2022-11-25T10:02:37;100100.75;;;4.62;99.95
17260;BME280;8746;49.230;9.220;2022-11-25T10:05:15;100096.53;;;4.51;99.79
17260;BME280;8746;49.230;9.220;2022-11-25T10:07:46;100098.34;;;4.44;100.00
17260;BME280;8746;49.230;9.220;2022-11-25T10:10:18;100095.97;;;4.25;99.73
17260;BME280;8746;49.230;9.220;2022-11-25T10:12:47;100092.56;;;4.20;100.00
17260;BME280;8746;49.230;9.220;2022-11-25T10:15:25;100104.72;;;4.20;100.00
17260;BME280;8746;49.230;9.220;2022-11-25T10:17:54;100108.31;;;4.14;100.00
17260;BME280;8746;49.230;9.220;2022-11-25T10:20:21;100102.91;;;4.29;100.00
17260;BME280;8746;49.230;9.220;2022-11-25T10:22:51;100119.34;;;4.36;100.00
17260;BME280;8746;49.230;9.220;2022-11-25T10:25:21;100121.88;;;4.44;100.00
17260;BME280;8746;49.230;9.220;2022-11-25T10:30:29;100114.88;;;4.49;100.00
17260;BME280;8746;49.230;9.220;2022-11-25T10:33:13;100121.59;;;4.65;100.00
17260;BME280;8746;49.230;9.220;2022-11-25T10:35:47;100112.81;;;4.70;100.00
17260;BME280;8746;49.230;9.220;2022-11-25T10:38:27;100106.63;;;4.77;100.00
17260;BME280;8746;49.230;9.220;2022-11-25T10:40:54;100119.72;;;4.75;100.00
17260;BME280;8746;49.230;9.220;2022-11-25T10:43:20;100117.19;;;4.71;100.00
17260;BME280;8746;49.230;9.220;2022-11-25T10:46:07;100123.16;;;4.82;100.00
17260;BME280;8746;49.230;9.220;2022-11-25T10:48:53;100122.44;;;4.69;100.00
17260;BME280;8746;49.230;9.220;2022-11-25T10:51:42;100129.38;;;4.70;100.00
17260;BME280;8746;49.230;9.220;2022-11-25T10:54:19;100125.03;;;4.72;100.00
17260;BME280;8746;49.230;9.220;2022-11-25T10:57:00;100124.94;;;4.78;100.00
17260;BME280;8746;49.230;9.220;2022-11-25T10:59:36;100128.47;;;4.73;100.00
17260;BME280;8746;49.230;9.220;2022-11-25T11:02:17;100123.06;;;4.87;100.00
17260;BME280;8746;49.230;9.220;2022-11-25T11:07:15;100116.22;;;4.78;100.00
17260;BME280;8746;49.230;9.220;2022-11-25T11:09:40;100124.91;;;4.80;100.00
17260;BME280;8746;49.230;9.220;2022-11-25T11:12:13;100125.63;;;4.91;100.00
17260;BME280;8746;49.230;9.220;2022-11-25T11:14:40;100122.09;;;4.95;100.00
17260;BME280;8746;49.230;9.220;2022-11-25T11:17:52;100114.09;;;5.05;100.00
17260;BME280;8746;49.230;9.220;2022-11-25T11:20:18;100121.06;;;5.06;100.00
17260;BME280;8746;49.230;9.220;2022-11-25T11:22:53;100135.72;;;5.16;100.00
17260;BME280;8746;49.230;9.220;2022-11-25T11:27:44;100137.00;;;5.48;100.00
17260;BME280;8746;49.230;9.220;2022-11-25T11:30:14;100145.09;;;5.29;100.00
17260;BME280;8746;49.230;9.220;2022-11-25T11:32:43;100144.00;;;5.46;100.00
17260;BME280;8746;49.230;9.220;2022-11-25T11:35:14;100150.91;;;5.49;100.00
17260;BME280;8746;49.230;9.220;2022-11-25T11:37:45;100136.84;;;5.56;100.00
17260;BME280;8746;49.230;9.220;2022-11-25T11:53:47;100149.56;;;5.79;100.00
17260;BME280;8746;49.230;9.220;2022-11-25T11:56:20;100140.78;;;5.82;100.00
17260;BME280;8746;49.230;9.220;2022-11-25T12:02:05;100159.03;;;5.86;100.00
17260;BME280;8746;49.230;9.220;2022-11-25T12:04:41;100156.31;;;5.92;100.00
17260;BME280;8746;49.230;9.220;2022-11-25T12:07:32;100158.03;;;5.93;100.00
17260;BME280;8746;49.230;9.220;2022-11-25T12:10:06;100159.34;;;6.19;100.00
17260;BME280;8746;49.230;9.220;2022-11-25T12:12:39;100154.00;;;6.25;100.00
17260;BME280;8746;49.230;9.220;2022-11-25T12:15:34;100156.50;;;6.32;100.00
17260;BME280;8746;49.230;9.220;2022-11-25T12:18:08;100160.72;;;6.39;100.00
17260;BME280;8746;49.230;9.220;2022-11-25T12:26:21;100169.41;;;6.41;100.00
17260;BME280;8746;49.230;9.220;2022-11-25T12:28:56;100164.34;;;6.32;100.00
17260;BME280;8746;49.230;9.220;2022-11-25T12:31:26;100166.94;;;6.33;100.00
17260;BME280;8746;49.230;9.220;2022-11-25T12:36:38;100165.97;;;6.39;100.00
17260;BME280;8746;49.230;9.220;2022-11-25T12:39:14;100164.09;;;6.44;100.00
17260;BME280;8746;49.230;9.220;2022-11-25T12:42:03;100166.66;;;6.49;100.00
17260;BME280;8746;49.230;9.220;2022-11-25T12:44:51;100163.81;;;6.60;100.00
17260;BME280;8746;49.230;9.220;2022-11-25T12:47:18;100161.50;;;6.86;100.00
17260;BME280;8746;49.230;9.220;2022-11-25T12:49:47;100157.97;;;6.89;100.00
17260;BME280;8746;49.230;9.220;2022-11-25T12:52:39;100166.81;;;6.83;100.00
17260;BME280;8746;49.230;9.220;2022-11-25T12:55:25;100171.91;;;6.89;100.00
17260;BME280;8746;49.230;9.220;2022-11-25T13:00:23;100176.56;;;7.17;100.00
17260;BME280;8746;49.230;9.220;2022-11-25T13:11:57;100176.38;;;7.27;100.00
17260;BME280;8746;49.230;9.220;2022-11-25T13:17:16;100184.00;;;7.36;100.00
17260;BME280;8746;49.230;9.220;2022-11-25T13:19:45;100190.34;;;7.65;100.00
17260;BME280;8746;49.230;9.220;2022-11-25T13:24:44;100191.47;;;7.91;100.00
17260;BME280;8746;49.230;9.220;2022-11-25T13:29:55;100195.28;;;8.12;100.00
17260;BME280;8746;49.230;9.220;2022-11-25T13:32:29;100211.19;;;8.07;100.00
17260;BME280;8746;49.230;9.220;2022-11-25T13:37:45;100214.69;;;8.06;100.00
17260;BME280;8746;49.230;9.220;2022-11-25T13:42:49;100228.41;;;7.83;100.00
17260;BME280;8746;49.230;9.220;2022-11-25T13:45:38;100231.22;;;7.75;100.00
17260;BME280;8746;49.230;9.220;2022-11-25T13:48:38;100235.78;;;7.67;100.00
17260;BME280;8746;49.230;9.220;2022-11-25T13:51:14;100240.16;;;7.68;100.00
17260;BME280;8746;49.230;9.220;2022-11-25T13:53:50;100237.56;;;7.66;100.00
17260;BME280;8746;49.230;9.220;2022-11-25T14:04:07;100255.47;;;7.86;100.00
17260;BME280;8746;49.230;9.220;2022-11-25T14:12:37;100266.50;;;7.65;100.00
17260;BME280;8746;49.230;9.220;2022-11-25T14:15:28;100274.19;;;7.73;100.00
17260;BME280;8746;49.230;9.220;2022-11-25T14:18:34;100278.66;;;7.69;100.00
17260;BME280;8746;49.230;9.220;2022-11-25T14:24:19;100277.81;;;7.67;100.00
17260;BME280;8746;49.230;9.220;2022-11-25T14:26:50;100293.59;;;7.65;100.00
17260;BME280;8746;49.230;9.220;2022-11-25T14:29:40;100293.66;;;7.64;100.00
17260;BME280;8746;49.230;9.220;2022-11-25T14:32:13;100300.59;;;7.66;100.00
17260;BME280;8746;49.230;9.220;2022-11-25T14:34:55;100305.81;;;7.68;100.00
17260;BME280;8746;49.230;9.220;2022-11-25T14:40:27;100306.69;;;7.67;100.00
17260;BME280;8746;49.230;9.220;2022-11-25T14:43:02;100307.53;;;7.69;100.00
17260;BME280;8746;49.230;9.220;2022-11-25T14:45:31;100322.59;;;7.61;100.00
17260;BME280;8746;49.230;9.220;2022-11-25T14:48:16;100317.16;;;7.70;100.00